Time;durP1;ratioP1;P1;durP2;ratioP2;P2;SDS_P1;SDS_P2;PMS_P1;PMS_P2;Temp;Humidity;BMP_temperature;BMP_pressure;BME280_temperature;BME280_humidity;BME280_pressure;Samples;Min_cycle;Max_cycle;Signal;HPM_P1;HPM_P2
2022/11/03 00:01:11;;;;;;;;;11.00;4.75;;;;;15.83;55.47;100947.56;5079747;28;45327;-47
2022/11/03 00:03:36;;;;;;;;;7.75;4.00;;;;;15.81;55.50;100946.78;5079898;28;45461;-44
2022/11/03 00:06:05;;;;;;;;;7.00;4.50;;;;;15.80;55.88;100945.94;5075093;27;45507;-43
2022/11/03 00:08:31;;;;;;;;;6.25;4.00;;;;;15.79;55.30;100946.00;5091124;27;47341;-44
2022/11/03 00:11:13;;;;;;;;;6.00;3.25;;;;;15.77;55.76;100951.34;5079561;28;45731;-43
2022/11/03 00:13:41;;;;;;;;;8.50;5.25;;;;;15.74;56.13;100947.06;5079781;27;45322;-46
2022/11/03 00:16:07;;;;;;;;;9.75;4.75;;;;;15.73;55.25;100947.94;5074636;28;45275;-43
2022/11/03 00:18:33;;;;;;;;;7.00;4.00;;;;;15.74;55.78;100938.25;5081977;27;46042;-44
2022/11/03 00:21:00;;;;;;;;;4.75;3.75;;;;;15.73;56.10;100932.13;5109919;27;45394;-43
2022/11/03 00:23:28;;;;;;;;;6.50;4.75;;;;;15.71;56.01;100933.97;5077916;27;45268;-45
2022/11/03 00:25:53;;;;;;;;;9.00;4.50;;;;;15.69;56.11;100933.19;5080823;27;45539;-45
2022/11/03 00:28:19;;;;;;;;;6.25;4.25;;;;;15.68;56.11;100934.09;5082152;27;45579;-45
2022/11/03 00:30:44;;;;;;;;;4.25;3.25;;;;;15.66;55.90;100927.19;5077283;28;66318;-43
2022/11/03 00:33:09;;;;;;;;;5.50;4.75;;;;;15.67;55.99;100926.25;5081915;27;48885;-43
2022/11/03 00:35:35;;;;;;;;;7.25;4.25;;;;;15.67;56.17;100918.34;5086182;27;45326;-44
2022/11/03 00:38:00;;;;;;;;;4.00;3.75;;;;;15.67;56.04;100924.50;5082182;27;68960;-49
2022/11/03 00:40:25;;;;;;;;;4.75;2.50;;;;;15.69;56.12;100919.16;5079909;27;53607;-42
2022/11/03 00:42:50;;;;;;;;;7.00;4.25;;;;;15.69;56.39;100919.16;5081924;27;63219;-43
2022/11/03 00:45:16;;;;;;;;;4.75;3.75;;;;;15.69;56.06;100913.88;5082595;27;69036;-46
2022/11/03 00:48:28;;;;;;;;;7.25;3.00;;;;;15.70;56.18;100900.59;5079621;27;61069;-46
2022/11/03 00:50:27;;;;;;;;;5.00;4.50;;;;;15.71;56.10;100904.94;5077517;28;45731;-42
2022/11/03 00:52:52;;;;;;;;;7.25;4.00;;;;;15.72;56.30;100895.25;5079891;27;45473;-44
2022/11/03 00:55:18;;;;;;;;;7.75;4.25;;;;;15.69;56.19;100887.50;5081161;27;53811;-45
2022/11/03 00:57:44;;;;;;;;;6.25;3.25;;;;;15.72;56.07;100897.88;5079614;27;58195;-45
2022/11/03 01:00:10;;;;;;;;;6.25;3.75;;;;;15.73;56.38;100894.31;5062538;27;45856;-44
2022/11/03 01:02:35;;;;;;;;;5.75;4.25;;;;;15.73;56.06;100883.78;5076848;28;45352;-44
2022/11/03 01:07:44;;;;;;;;;4.50;3.50;;;;;15.73;56.63;100879.34;5079179;27;45786;-45
2022/11/03 01:10:10;;;;;;;;;7.75;4.00;;;;;15.74;56.50;100873.19;5080840;28;61597;-41
2022/11/03 01:12:35;;;;;;;;;6.00;3.50;;;;;15.75;56.36;100858.19;5077799;27;45457;-42
2022/11/03 01:15:01;;;;;;;;;5.75;4.00;;;;;15.72;56.30;100861.81;5080150;27;73369;-41
2022/11/03 01:17:28;;;;;;;;;7.75;4.50;;;;;15.71;56.59;100859.25;5073680;28;46239;-43
2022/11/03 01:19:53;;;;;;;;;6.00;3.50;;;;;15.71;56.19;100859.25;5080828;27;45375;-43
2022/11/03 01:22:20;;;;;;;;;4.25;4.00;;;;;15.69;56.03;100851.41;5082228;28;45322;-44
2022/11/03 01:24:45;;;;;;;;;6.75;3.25;;;;;15.71;56.17;100859.25;5080409;27;45562;-41
2022/11/03 01:27:13;;;;;;;;;7.00;3.00;;;;;15.71;56.43;100846.06;5081452;28;45433;-43
2022/11/03 01:29:39;;;;;;;;;3.50;1.75;;;;;15.72;56.50;100839.84;5076776;27;45271;-44
2022/11/03 01:32:05;;;;;;;;;9.00;4.00;;;;;15.71;56.45;100827.59;5080876;27;45267;-42
2022/11/03 01:34:30;;;;;;;;;9.00;5.00;;;;;15.73;56.49;100831.84;5078313;28;45403;-45
2022/11/03 01:36:56;;;;;;;;;5.25;3.00;;;;;15.75;56.34;100829.19;5079094;28;53003;-44
2022/11/03 01:39:22;;;;;;;;;3.00;3.00;;;;;15.74;56.28;100819.50;5081958;27;45471;-48
2022/11/03 01:41:49;;;;;;;;;5.25;3.75;;;;;15.77;56.30;100819.41;5080666;28;45282;-45
2022/11/03 01:44:14;;;;;;;;;7.75;3.75;;;;;15.77;56.52;100802.72;5082035;27;45317;-48
2022/11/03 01:47:16;;;;;;;;;7.00;4.00;;;;;15.79;56.59;100808.78;5079489;27;45266;-45
2022/11/03 01:49:42;;;;;;;;;3.75;3.75;;;;;15.79;56.60;100795.59;5076791;27;45725;-47
2022/11/03 01:52:09;;;;;;;;;4.50;3.00;;;;;15.80;56.01;100800.78;5076749;27;45433;-42
2022/11/03 01:54:36;;;;;;;;;5.00;3.25;;;;;15.80;56.41;100797.31;5078847;27;45349;-44
2022/11/03 01:57:04;;;;;;;;;8.50;2.75;;;;;15.80;56.28;100798.16;5078508;28;46601;-47
2022/11/03 01:59:30;;;;;;;;;8.75;6.00;;;;;15.79;56.29;100785.88;5056413;28;46284;-42
2022/11/03 02:01:55;;;;;;;;;3.50;3.50;;;;;15.80;56.50;100781.47;5081172;27;56854;-42
2022/11/03 02:04:28;;;;;;;;;6.75;3.50;;;;;15.78;55.89;100767.50;5080701;27;56002;-43
2022/11/03 02:07:21;;;;;;;;;4.00;2.25;;;;;15.76;56.15;100770.22;5096928;27;47236;-42
2022/11/03 02:09:46;;;;;;;;;5.75;3.50;;;;;15.74;56.45;100766.72;5080903;27;45229;-42
2022/11/03 02:12:13;;;;;;;;;9.50;3.00;;;;;15.73;56.27;100768.53;5081280;27;47298;-42
2022/11/03 02:14:44;;;;;;;;;8.25;4.00;;;;;15.72;56.18;100760.69;5079383;28;45425;-42
2022/11/03 02:17:11;;;;;;;;;3.25;2.75;;;;;15.70;56.23;100758.09;5075537;27;45363;-41
2022/11/03 02:19:39;;;;;;;;;4.50;3.75;;;;;15.72;56.54;100755.41;5079700;27;45898;-43
2022/11/03 02:22:32;;;;;;;;;4.00;3.00;;;;;15.72;56.46;100751.00;5085071;27;45312;-45
2022/11/03 02:25:19;;;;;;;;;6.25;3.75;;;;;15.71;56.05;100743.16;5074569;27;45465;-49
2022/11/03 02:27:44;;;;;;;;;6.00;2.75;;;;;15.67;56.42;100745.09;5073934;27;46193;-44
2022/11/03 02:30:10;;;;;;;;;9.25;3.75;;;;;15.66;56.74;100743.38;5079780;27;45212;-43
2022/11/03 02:32:47;;;;;;;;;5.75;3.50;;;;;15.66;56.67;100739.88;5078958;28;45409;-42
2022/11/03 02:35:18;;;;;;;;;8.75;4.50;;;;;15.66;56.53;100739.88;5076570;28;45330;-43
2022/11/03 02:37:46;;;;;;;;;4.25;1.75;;;;;15.62;56.49;100720.72;5078403;27;46809;-43
2022/11/03 02:40:15;;;;;;;;;4.75;1.75;;;;;15.59;56.91;100710.31;5080621;28;45513;-43
2022/11/03 02:42:45;;;;;;;;;7.25;4.50;;;;;15.60;56.58;100711.16;5076022;28;45256;-43
2022/11/03 02:45:12;;;;;;;;;5.50;3.50;;;;;15.60;56.44;100708.50;5079469;27;45387;-42
2022/11/03 02:47:39;;;;;;;;;6.50;3.50;;;;;15.58;56.61;100711.22;5080884;27;47448;-43
2022/11/03 02:50:07;;;;;;;;;7.00;4.50;;;;;15.59;56.88;100702.38;5079414;28;69013;-44
2022/11/03 02:52:37;;;;;;;;;4.00;3.00;;;;;15.57;56.96;100706.88;5079389;27;45234;-43
2022/11/03 02:55:10;;;;;;;;;3.75;3.75;;;;;15.53;56.83;100685.06;5077681;28;45248;-42
2022/11/03 02:57:41;;;;;;;;;7.00;4.25;;;;;15.50;56.75;100679.94;5079422;27;45471;-43
2022/11/03 03:00:08;;;;;;;;;3.50;3.00;;;;;15.46;56.70;100667.84;5071258;27;45741;-43
2022/11/03 03:03:04;;;;;;;;;7.50;3.50;;;;;15.44;57.17;100661.78;5080445;27;45343;-44
2022/11/03 03:05:33;;;;;;;;;7.25;5.50;;;;;15.43;56.69;100662.72;5050768;27;45419;-42
2022/11/03 03:08:04;;;;;;;;;5.00;4.50;;;;;15.44;56.77;100655.66;5079020;28;46039;-42
2022/11/03 03:10:37;;;;;;;;;4.25;3.75;;;;;15.42;56.75;100641.69;5080610;27;45473;-44
2022/11/03 03:13:04;;;;;;;;;4.50;3.00;;;;;15.41;56.78;100640.84;5080142;28;45394;-42
2022/11/03 03:15:32;;;;;;;;;6.00;3.75;;;;;15.40;56.81;100619.81;5079210;27;45443;-41
2022/11/03 03:18:11;;;;;;;;;3.75;3.00;;;;;15.40;56.81;100618.03;5079789;27;46141;-44
2022/11/03 03:21:02;;;;;;;;;5.75;4.00;;;;;15.41;57.26;100608.34;5074090;28;45948;-44
2022/11/03 03:23:35;;;;;;;;;6.50;4.25;;;;;15.41;56.90;100597.81;5079293;27;45355;-45
2022/11/03 03:26:07;;;;;;;;;6.00;3.75;;;;;15.37;56.84;100600.59;5074556;28;45442;-43
2022/11/03 03:28:42;;;;;;;;;6.75;5.00;;;;;15.38;57.23;100598.78;5078914;28;45580;-45
2022/11/03 03:31:09;;;;;;;;;10.00;4.75;;;;;15.37;56.99;100592.66;5078927;27;45374;-44
2022/11/03 03:33:36;;;;;;;;;6.00;3.00;;;;;15.37;57.26;100583.91;5072229;28;45339;-43
2022/11/03 03:36:04;;;;;;;;;10.50;4.50;;;;;15.36;57.02;100576.94;5078490;28;45331;-45
2022/11/03 03:38:34;;;;;;;;;6.25;4.00;;;;;15.35;57.04;100569.94;5078757;28;47277;-47
2022/11/03 03:41:01;;;;;;;;;6.75;5.50;;;;;15.33;56.93;100546.31;5077967;27;45759;-43
2022/11/03 03:43:28;;;;;;;;;8.25;5.25;;;;;15.32;57.00;100549.84;5077818;28;45396;-43
2022/11/03 03:45:55;;;;;;;;;5.50;4.75;;;;;15.31;56.94;100550.78;5077483;28;45305;-42
2022/11/03 03:48:21;;;;;;;;;8.75;5.25;;;;;15.32;57.33;100554.28;5076134;28;46250;-43
2022/11/03 03:50:48;;;;;;;;;5.50;5.50;;;;;15.30;57.12;100554.34;5075260;27;45371;-47
2022/11/03 03:53:14;;;;;;;;;5.00;5.00;;;;;15.27;56.76;100546.59;5078123;27;45544;-44
2022/11/03 03:55:42;;;;;;;;;7.00;5.50;;;;;15.25;56.86;100550.25;5080099;27;45241;-42
2022/11/03 03:58:09;;;;;;;;;7.75;5.25;;;;;15.22;57.08;100547.75;5072950;28;45412;-42
2022/11/03 04:00:38;;;;;;;;;5.00;3.50;;;;;15.19;57.17;100565.44;5073790;27;45345;-43
2022/11/03 04:03:04;;;;;;;;;10.00;7.00;;;;;15.21;57.14;100565.38;5079574;27;45236;-45
2022/11/03 04:05:30;;;;;;;;;6.00;6.00;;;;;15.21;56.95;100570.63;5079498;27;45465;-44
2022/11/03 04:07:57;;;;;;;;;10.00;4.50;;;;;15.23;56.99;100567.91;5069643;27;70936;-43
2022/11/03 04:10:22;;;;;;;;;4.00;3.75;;;;;15.26;56.78;100554.56;5079761;27;45482;-44
2022/11/03 04:23:45;;;;;;;;;5.25;4.25;;;;;15.26;57.24;100549.31;5060601;28;45454;-43
2022/11/03 04:26:15;;;;;;;;;5.00;4.00;;;;;15.25;56.91;100544.97;5078325;27;46393;-48
2022/11/03 04:28:41;;;;;;;;;8.75;4.25;;;;;15.23;56.86;100531.88;5074373;28;46150;-43
2022/11/03 04:31:14;;;;;;;;;4.00;2.50;;;;;15.23;57.05;100515.19;5075372;27;45522;-45
2022/11/03 04:33:40;;;;;;;;;4.25;4.25;;;;;15.23;57.09;100509.91;5078015;28;45509;-43
2022/11/03 04:36:25;;;;;;;;;5.25;3.75;;;;;15.24;57.38;100515.09;5060898;28;45335;-43
2022/11/03 04:38:51;;;;;;;;;5.50;3.00;;;;;15.23;56.90;100512.53;5074918;28;46359;-44
2022/11/03 04:41:21;;;;;;;;;3.25;2.75;;;;;15.19;57.02;100499.53;5070028;27;45300;-43
2022/11/03 04:43:48;;;;;;;;;6.00;4.00;;;;;15.17;57.03;100504.03;5078688;27;45426;-44
2022/11/03 04:46:26;;;;;;;;;6.25;2.75;;;;;15.12;57.46;100494.63;5075862;28;45532;-42
2022/11/03 04:48:58;;;;;;;;;6.50;4.00;;;;;15.11;57.01;100491.16;5075146;27;45458;-43
2022/11/03 04:51:26;;;;;;;;;2.50;2.50;;;;;15.12;57.10;100492.88;5072805;28;45392;-43
2022/11/03 04:53:58;;;;;;;;;6.00;3.25;;;;;15.12;57.55;100477.06;5079171;27;45302;-47
2022/11/03 04:56:24;;;;;;;;;4.75;3.75;;;;;15.10;57.02;100483.31;5077128;28;45345;-45
2022/11/03 04:58:50;;;;;;;;;4.25;4.00;;;;;15.10;57.24;100472.75;5065193;28;46524;-43
2022/11/03 05:01:18;;;;;;;;;7.25;2.75;;;;;15.08;57.11;100472.00;5083174;27;45744;-43
2022/11/03 05:03:45;;;;;;;;;7.25;4.75;;;;;15.08;57.10;100469.34;5080100;27;45329;-43
2022/11/03 05:06:20;;;;;;;;;6.25;3.50;;;;;15.05;57.29;100462.47;5082177;27;45371;-46
2022/11/03 05:08:51;;;;;;;;;8.50;4.00;;;;;15.06;57.28;100461.53;5082388;27;46032;-44
2022/11/03 05:11:46;;;;;;;;;7.00;4.75;;;;;15.03;57.41;100448.50;5082028;27;45288;-42
2022/11/03 05:14:23;;;;;;;;;4.50;3.50;;;;;15.04;57.40;100439.66;5071966;27;45227;-42
2022/11/03 05:16:52;;;;;;;;;12.75;6.00;;;;;15.05;57.78;100440.50;5078267;27;45307;-49
2022/11/03 05:19:22;;;;;;;;;8.00;4.00;;;;;15.04;57.18;100439.66;5081551;27;45368;-48
2022/11/03 05:21:49;;;;;;;;;5.75;4.00;;;;;15.06;57.21;100431.69;5080165;27;45252;-47
2022/11/03 05:24:15;;;;;;;;;14.25;6.25;;;;;15.05;57.40;100422.06;5064036;28;45490;-47
2022/11/03 05:26:42;;;;;;;;;2.75;2.75;;;;;15.06;57.33;100407.97;5081449;27;45335;-46
2022/11/03 05:29:39;;;;;;;;;4.00;4.00;;;;;15.07;57.56;100410.53;5080534;28;55575;-45
2022/11/03 05:32:11;;;;;;;;;6.75;4.75;;;;;15.04;57.59;100391.41;5054394;28;45335;-48
2022/11/03 05:34:41;;;;;;;;;8.00;5.50;;;;;15.02;57.24;100396.75;5063954;28;45632;-46
2022/11/03 05:37:20;;;;;;;;;7.50;6.00;;;;;14.98;57.71;100390.78;5080361;27;45275;-47
2022/11/03 05:39:47;;;;;;;;;8.25;4.25;;;;;14.97;57.50;100394.31;5085113;27;46228;-45
2022/11/03 05:42:21;;;;;;;;;4.50;4.50;;;;;14.97;57.77;100389.06;5079234;28;45376;-44
2022/11/03 05:44:49;;;;;;;;;8.00;5.00;;;;;14.98;57.47;100377.59;5075846;28;45362;-47
2022/11/03 05:47:20;;;;;;;;;7.00;4.00;;;;;14.98;57.81;100366.22;5080758;28;45363;-42
2022/11/03 05:49:47;;;;;;;;;12.00;5.00;;;;;14.98;57.85;100347.78;5076408;28;46409;-46
2022/11/03 05:52:18;;;;;;;;;6.50;4.50;;;;;14.96;57.68;100332.03;5079657;27;45314;-44
2022/11/03 05:54:44;;;;;;;;;8.00;5.75;;;;;14.96;57.55;100329.41;5078843;28;45277;-46
2022/11/03 05:57:10;;;;;;;;;7.25;5.00;;;;;14.99;57.92;100331.00;5080795;27;72156;-44
2022/11/03 05:59:36;;;;;;;;;5.50;4.25;;;;;15.00;57.74;100336.19;5070844;28;45362;-43
2022/11/03 06:02:07;;;;;;;;;4.00;4.00;;;;;14.97;57.42;100324.97;5080664;27;71849;-49
2022/11/03 06:04:39;;;;;;;;;6.75;4.50;;;;;14.99;57.71;100333.66;5079742;27;45267;-47
2022/11/03 06:07:25;;;;;;;;;7.25;5.25;;;;;14.96;57.75;100326.75;5078999;27;45420;-45
2022/11/03 06:09:54;;;;;;;;;4.00;2.50;;;;;14.93;57.67;100326.91;5073193;27;45410;-42
2022/11/03 06:12:20;;;;;;;;;3.00;2.75;;;;;14.92;58.04;100329.63;5081270;27;45945;-47
2022/11/03 06:14:45;;;;;;;;;6.00;4.50;;;;;14.90;57.72;100323.59;5080400;28;45441;-43
2022/11/03 06:17:25;;;;;;;;;7.25;4.00;;;;;14.90;57.71;100319.16;5084495;27;45460;-45
2022/11/03 06:19:53;;;;;;;;;6.00;5.25;;;;;14.90;58.16;100315.69;5096696;27;47158;-44
2022/11/03 06:22:22;;;;;;;;;5.25;5.00;;;;;14.91;57.78;100325.28;5078743;28;45933;-45
2022/11/03 06:24:48;;;;;;;;;4.75;2.00;;;;;14.88;57.93;100304.38;5080885;27;45420;-49
2022/11/03 06:27:16;;;;;;;;;6.25;5.00;;;;;14.87;58.10;100300.03;5081076;28;45346;-46
2022/11/03 06:29:46;;;;;;;;;7.50;3.50;;;;;14.86;57.94;100290.44;5076574;27;46271;-47
2022/11/03 06:32:12;;;;;;;;;3.50;3.50;;;;;14.82;57.82;100287.13;5078779;28;45868;-49
2022/11/03 06:34:49;;;;;;;;;7.50;4.25;;;;;14.84;58.29;100282.59;5081149;27;45524;-47
2022/11/03 06:37:26;;;;;;;;;6.25;5.00;;;;;14.84;58.38;100279.97;5080335;28;45436;-42
2022/11/03 06:39:58;;;;;;;;;4.75;4.75;;;;;14.86;58.17;100277.25;5076357;28;46215;-45
2022/11/03 06:42:25;;;;;;;;;4.00;3.25;;;;;14.86;57.79;100275.47;5079989;27;45379;-45
2022/11/03 06:44:50;;;;;;;;;5.00;4.50;;;;;14.90;57.79;100260.34;5077662;28;69361;-45
2022/11/03 06:47:19;;;;;;;;;6.50;3.75;;;;;14.89;57.82;100253.38;5079806;27;45374;-46
2022/11/03 06:49:45;;;;;;;;;7.25;5.00;;;;;14.88;58.25;100241.16;5079175;28;46891;-44
2022/11/03 06:52:24;;;;;;;;;5.75;4.25;;;;;14.89;57.93;100254.25;5077770;27;45235;-48
2022/11/03 06:54:54;;;;;;;;;6.75;5.75;;;;;14.90;57.79;100248.03;5075546;28;45253;-42
2022/11/03 06:57:20;;;;;;;;;7.25;5.00;;;;;14.87;58.29;100248.19;5079552;27;45462;-47
2022/11/03 06:59:45;;;;;;;;;8.25;4.75;;;;;14.87;58.06;100256.09;5070332;28;71207;-43
2022/11/03 07:02:45;;;;;;;;;7.00;5.25;;;;;14.88;58.06;100246.41;5075649;27;67709;-46
2022/11/03 07:05:25;;;;;;;;;6.75;5.00;;;;;14.91;58.19;100227.78;5064400;28;45225;-44
2022/11/03 07:07:59;;;;;;;;;8.25;6.00;;;;;14.92;57.82;100217.19;5068778;27;45418;-47
2022/11/03 07:10:30;;;;;;;;;10.00;4.25;;;;;14.92;58.00;100206.63;5080395;27;45367;-48
2022/11/03 07:12:58;;;;;;;;;8.00;4.75;;;;;14.91;57.94;100207.59;5079613;27;45636;-45
2022/11/03 07:15:32;;;;;;;;;7.75;4.00;;;;;14.91;57.81;100210.22;5077332;27;45485;-45
2022/11/03 07:17:59;;;;;;;;;6.25;4.00;;;;;14.87;57.76;100210.44;5075437;28;45327;-43
2022/11/03 07:20:25;;;;;;;;;7.50;6.00;;;;;14.87;57.67;100192.00;5079074;27;45449;-45
2022/11/03 07:22:51;;;;;;;;;5.75;4.75;;;;;14.87;57.61;100203.38;5080447;27;45371;-47
2022/11/03 07:25:19;;;;;;;;;9.75;4.25;;;;;14.90;57.62;100197.13;5080314;27;45299;-46
2022/11/03 07:27:45;;;;;;;;;5.25;5.00;;;;;14.87;57.67;100197.28;5077778;28;45386;-44
2022/11/03 07:30:20;;;;;;;;;10.50;6.00;;;;;14.88;57.46;100181.41;5077172;27;46407;-42
2022/11/03 07:32:47;;;;;;;;;4.50;4.25;;;;;14.89;57.84;100176.97;5079561;27;45683;-47
2022/11/03 07:35:31;;;;;;;;;5.25;5.00;;;;;14.91;57.62;100167.19;5078471;27;45184;-42
2022/11/03 07:38:01;;;;;;;;;5.50;4.25;;;;;14.86;57.54;100167.47;5078176;28;45462;-41
2022/11/03 07:40:27;;;;;;;;;7.25;4.00;;;;;14.85;57.32;100162.28;5077736;28;46075;-44
2022/11/03 07:43:01;;;;;;;;;4.00;3.50;;;;;14.84;57.80;100165.81;5078732;28;45746;-42
2022/11/03 07:45:34;;;;;;;;;5.25;4.25;;;;;14.87;57.45;100169.16;5080220;27;45337;-45
2022/11/03 07:48:10;;;;;;;;;9.50;6.00;;;;;14.90;57.47;100145.28;5074868;27;45492;-42
2022/11/03 07:50:37;;;;;;;;;11.25;5.00;;;;;14.93;57.82;100150.38;5078303;27;46262;-48
2022/11/03 07:53:13;;;;;;;;;5.25;4.50;;;;;14.95;57.09;100151.16;5079511;28;45418;-43
2022/11/03 07:55:38;;;;;;;;;5.50;4.25;;;;;14.94;57.51;100145.97;5078366;27;45497;-43
2022/11/03 07:58:18;;;;;;;;;8.00;4.25;;;;;14.93;57.49;100141.63;5057611;28;45348;-42
2022/11/03 08:00:44;;;;;;;;;7.25;6.00;;;;;14.96;56.78;100150.22;5063511;28;45245;-42
2022/11/03 08:03:22;;;;;;;;;9.25;4.25;;;;;14.98;56.94;100148.34;5078043;28;65233;-43
2022/11/03 08:05:47;;;;;;;;;8.75;4.50;;;;;15.00;56.95;100140.38;5076725;28;45453;-42
2022/11/03 08:08:12;;;;;;;;;7.00;5.00;;;;;15.02;56.86;100125.31;5077519;28;66809;-42
2022/11/03 08:10:38;;;;;;;;;12.00;5.50;;;;;15.06;56.80;100120.72;5081857;27;51896;-42
2022/11/03 08:13:03;;;;;;;;;6.50;6.50;;;;;15.07;57.11;100120.66;5079709;27;46897;-42
2022/11/03 08:15:28;;;;;;;;;8.00;5.00;;;;;15.09;56.94;100131.09;5078824;27;61587;-48
2022/11/03 08:17:54;;;;;;;;;7.25;5.75;;;;;15.10;57.13;100123.13;5078822;27;72116;-46
2022/11/03 08:20:19;;;;;;;;;8.25;7.75;;;;;15.14;56.72;100118.53;5080671;27;65996;-42
2022/11/03 08:22:44;;;;;;;;;8.00;7.75;;;;;15.15;56.38;100112.31;5074295;27;69034;-45
2022/11/03 08:25:09;;;;;;;;;7.75;5.00;;;;;15.16;56.57;100112.22;5078302;27;57949;-43
2022/11/03 08:27:35;;;;;;;;;11.25;6.50;;;;;15.18;56.47;100115.63;5076698;28;71199;-44
2022/11/03 08:30:00;;;;;;;;;5.25;4.75;;;;;15.22;56.16;100097.84;5078605;27;65080;-48
2022/11/03 08:32:25;;;;;;;;;7.25;4.00;;;;;15.26;56.32;100103.78;5078638;28;62457;-42
2022/11/03 08:34:51;;;;;;;;;8.75;5.25;;;;;15.30;56.00;100097.44;5076376;27;68485;-42
2022/11/03 08:37:16;;;;;;;;;5.50;4.75;;;;;15.32;56.10;100092.91;5078042;28;66301;-42
2022/11/03 08:39:41;;;;;;;;;9.75;4.75;;;;;15.33;55.91;100100.72;5080841;27;46238;-42
2022/11/03 08:42:07;;;;;;;;;7.75;5.75;;;;;15.37;56.11;100096.97;5079686;28;45305;-42
2022/11/03 08:44:32;;;;;;;;;7.25;5.75;;;;;15.38;55.67;100088.09;5081855;27;48666;-45
2022/11/03 08:46:57;;;;;;;;;5.25;4.00;;;;;15.44;55.76;100080.78;5081324;27;64195;-45
2022/11/03 08:49:23;;;;;;;;;8.25;6.00;;;;;15.45;55.92;100078.06;5083135;27;73384;-45
2022/11/03 08:51:48;;;;;;;;;5.50;2.75;;;;;15.49;55.83;100069.06;5082710;27;45451;-46
2022/11/03 08:54:13;;;;;;;;;7.25;5.25;;;;;15.50;55.73;100065.47;5078854;27;69392;-46
2022/11/03 08:56:39;;;;;;;;;7.50;4.75;;;;;15.50;55.33;100057.56;5076538;27;66099;-42
2022/11/03 08:59:04;;;;;;;;;10.50;4.75;;;;;15.53;55.07;100041.56;5073314;27;45438;-45
2022/11/03 09:01:29;;;;;;;;;7.75;4.00;;;;;15.56;55.43;100041.38;5068819;27;48948;-48
2022/11/03 09:03:55;;;;;;;;;7.50;4.25;;;;;15.56;55.22;100030.84;5075178;28;64042;-43
2022/11/03 09:06:20;;;;;;;;;6.25;4.25;;;;;15.56;55.10;100035.25;5080095;28;61291;-45
2022/11/03 09:08:45;;;;;;;;;5.75;3.50;;;;;15.57;55.08;100027.25;5081909;27;60061;-45
2022/11/03 09:11:11;;;;;;;;;6.75;4.25;;;;;15.53;54.78;100017.81;5081925;27;45339;-43
2022/11/03 09:13:36;;;;;;;;;9.00;6.75;;;;;15.60;54.96;100014.81;5079359;27;59105;-41
2022/11/03 09:16:01;;;;;;;;;10.00;5.00;;;;;15.60;54.85;100012.19;5077802;27;45511;-41
2022/11/03 09:18:26;;;;;;;;;6.25;6.00;;;;;15.60;55.01;100012.19;5082353;27;61632;-42
2022/11/03 09:20:52;;;;;;;;;3.50;3.50;;;;;15.63;54.87;100012.00;5085003;27;48742;-43
2022/11/03 09:23:17;;;;;;;;;7.50;4.75;;;;;15.63;54.71;99998.81;5081288;27;45370;-46
2022/11/03 09:25:43;;;;;;;;;12.50;6.00;;;;;15.63;54.90;99990.91;5081886;28;45496;-47
2022/11/03 09:28:08;;;;;;;;;11.25;6.50;;;;;15.64;54.69;99987.34;5086720;27;46004;-46
2022/11/03 09:30:33;;;;;;;;;9.75;5.75;;;;;15.64;54.86;99982.91;5079534;27;67527;-44
2022/11/03 09:32:58;;;;;;;;;7.00;4.00;;;;;15.68;54.75;99983.56;5081904;27;47013;-43
2022/11/03 09:35:24;;;;;;;;;7.00;5.75;;;;;15.68;54.83;99978.28;5079887;27;67616;-41
2022/11/03 09:37:49;;;;;;;;;7.50;5.00;;;;;15.68;54.62;99970.38;5080125;27;75773;-44
2022/11/03 09:40:16;;;;;;;;;13.50;8.00;;;;;15.68;54.40;99968.56;5081099;28;65552;-42
2022/11/03 09:42:41;;;;;;;;;6.00;6.00;;;;;15.71;54.71;99960.47;5082174;27;45322;-41
2022/11/03 09:45:08;;;;;;;;;6.25;5.75;;;;;15.74;54.56;99962.97;5077795;27;67933;-44
2022/11/03 09:47:42;;;;;;;;;9.00;5.75;;;;;15.78;54.56;99950.44;5079037;27;46307;-42
2022/11/03 09:50:13;;;;;;;;;8.00;4.50;;;;;15.83;53.99;99939.59;5078175;28;45792;-42
2022/11/03 09:52:39;;;;;;;;;7.50;5.75;;;;;15.81;54.17;99942.34;5078901;27;45610;-44
2022/11/03 09:55:12;;;;;;;;;13.00;7.50;;;;;15.87;54.21;99941.97;5078747;28;69589;-42
2022/11/03 09:57:37;;;;;;;;;11.00;7.00;;;;;15.92;54.21;99944.31;5080429;27;45548;-43
2022/11/03 10:00:03;;;;;;;;;7.75;6.00;;;;;15.97;54.35;99938.75;5065998;27;45251;-42
2022/11/03 10:02:30;;;;;;;;;7.75;6.00;;;;;16.04;54.10;99932.13;5063717;28;45307;-44
2022/11/03 10:04:58;;;;;;;;;8.75;7.50;;;;;16.09;53.92;99922.13;5071810;28;45524;-43
2022/11/03 10:07:25;;;;;;;;;13.00;8.50;;;;;16.14;53.47;99920.06;5079509;27;46366;-44
2022/11/03 10:09:52;;;;;;;;;5.75;5.00;;;;;16.16;53.43;99919.97;5086178;27;45235;-46
2022/11/03 10:12:18;;;;;;;;;9.50;7.00;;;;;16.19;53.48;99925.91;5079975;27;45513;-42
2022/11/03 10:14:45;;;;;;;;;6.25;5.00;;;;;16.21;53.96;99905.53;5076992;27;45382;-42
2022/11/03 10:17:15;;;;;;;;;10.75;5.50;;;;;16.26;53.66;99915.81;5084261;27;45445;-42
2022/11/03 10:19:41;;;;;;;;;7.75;7.00;;;;;16.28;53.07;99914.75;5079381;28;45916;-42
2022/11/03 10:22:07;;;;;;;;;7.25;5.25;;;;;16.30;53.40;99912.84;5078013;27;45373;-42
2022/11/03 10:24:32;;;;;;;;;6.75;6.25;;;;;16.30;52.93;99904.94;5063223;28;46641;-48
2022/11/03 10:26:57;;;;;;;;;10.25;6.50;;;;;16.32;53.05;99896.91;5077702;27;59608;-43
2022/11/03 10:29:27;;;;;;;;;9.00;7.25;;;;;16.32;52.84;99879.28;5081190;27;45310;-43
2022/11/03 10:31:55;;;;;;;;;8.00;4.00;;;;;16.38;52.87;99888.63;5059294;28;45307;-41
2022/11/03 10:34:26;;;;;;;;;7.50;5.50;;;;;16.40;52.97;99889.34;5078811;27;45268;-41
2022/11/03 10:37:19;;;;;;;;;4.25;4.25;;;;;16.42;52.56;99886.63;5077583;28;46126;-42
2022/11/03 10:39:44;;;;;;;;;3.00;3.00;;;;;16.45;52.53;99881.97;5076029;28;45688;-42
2022/11/03 10:42:21;;;;;;;;;4.50;4.50;;;;;16.49;52.59;99880.00;5081199;27;45358;-42
2022/11/03 10:44:47;;;;;;;;;7.50;5.25;;;;;16.53;52.26;99870.91;5076810;27;45500;-42
2022/11/03 10:47:33;;;;;;;;;7.00;4.75;;;;;16.59;52.29;99880.22;5078484;27;46017;-41
2022/11/03 10:49:59;;;;;;;;;5.50;5.00;;;;;16.62;52.09;99867.66;5085702;27;45298;-42
2022/11/03 10:52:27;;;;;;;;;6.25;4.25;;;;;16.63;52.41;99874.63;5078329;27;45481;-42
2022/11/03 10:54:55;;;;;;;;;7.75;5.00;;;;;16.65;52.14;99866.63;5077410;28;45615;-42
2022/11/03 10:57:22;;;;;;;;;13.00;6.00;;;;;16.67;52.00;99859.44;5079453;27;45376;-41
2022/11/03 10:59:49;;;;;;;;;13.50;7.00;;;;;16.68;52.12;99853.22;5056099;28;45557;-41
2022/11/03 11:02:19;;;;;;;;;63.00;24.25;;;;;16.70;51.98;99851.31;5076358;28;45150;-42
2022/11/03 11:04:47;;;;;;;;;53.25;26.25;;;;;16.72;52.10;99851.22;5080328;28;45241;-44
2022/11/03 11:07:23;;;;;;;;;11.25;8.75;;;;;16.75;51.98;99845.69;5079348;27;46057;-43
2022/11/03 11:09:49;;;;;;;;;24.00;12.00;;;;;16.76;51.84;99842.13;5076131;27;45786;-42
2022/11/03 11:12:17;;;;;;;;;11.75;7.00;;;;;16.78;51.94;99838.41;5074219;27;45447;-42
2022/11/03 11:15:34;;;;;;;;;11.00;7.75;;;;;16.81;52.46;99837.38;5078993;28;45512;-43
2022/11/03 11:17:59;;;;;;;;;14.25;7.00;;;;;16.83;52.04;99841.63;5067493;28;46536;-44
2022/11/03 11:20:29;;;;;;;;;9.50;5.00;;;;;16.85;52.23;99830.97;5078434;27;68329;-47
2022/11/03 11:23:26;;;;;;;;;9.50;7.25;;;;;16.86;52.09;99832.66;5080615;27;45438;-49
2022/11/03 11:26:16;;;;;;;;;8.75;6.00;;;;;16.85;52.13;99813.28;5094977;27;46402;-43
2022/11/03 11:28:44;;;;;;;;;7.50;6.75;;;;;16.86;52.15;99800.94;5071205;28;45374;-42
2022/11/03 11:31:25;;;;;;;;;7.25;5.00;;;;;16.86;52.10;99812.34;5075182;27;45494;-44
2022/11/03 11:34:20;;;;;;;;;7.00;6.00;;;;;16.86;52.19;99822.94;5079108;28;45396;-42
2022/11/03 11:36:54;;;;;;;;;6.75;5.75;;;;;16.87;52.35;99821.13;5075923;27;45265;-43
2022/11/03 11:39:22;;;;;;;;;9.75;5.00;;;;;16.86;52.43;99836.16;5078985;27;45360;-43
2022/11/03 11:42:16;;;;;;;;;6.75;6.25;;;;;16.85;53.39;99815.09;5079980;28;45712;-43
2022/11/03 11:44:41;;;;;;;;;6.75;5.00;;;;;16.82;53.79;99813.50;5073856;28;45334;-43
2022/11/03 11:47:28;;;;;;;;;7.50;6.00;;;;;16.78;54.23;99804.06;5073003;27;45534;-43
2022/11/03 11:50:06;;;;;;;;;7.00;6.50;;;;;16.76;54.88;99803.31;5078245;28;46126;-46
2022/11/03 11:52:45;;;;;;;;;13.00;8.00;;;;;16.76;55.12;99791.91;5078387;27;45409;-44